sensor_id;sensor_type;location;lat;lon;timestamp;P1;durP1;ratioP1;P2;durP2;ratioP2
16393;SDS011;8306;51.128;4.476;2022-10-22T00:02:18;6.33;;;2.57;;
16393;SDS011;8306;51.128;4.476;2022-10-22T00:04:45;6.67;;;2.67;;
16393;SDS011;8306;51.128;4.476;2022-10-22T00:07:11;4.57;;;2.10;;
16393;SDS011;8306;51.128;4.476;2022-10-22T00:09:37;5.53;;;2.73;;
16393;SDS011;8306;51.128;4.476;2022-10-22T00:12:04;8.03;;;3.20;;
16393;SDS011;8306;51.128;4.476;2022-10-22T00:14:30;5.67;;;2.47;;
16393;SDS011;8306;51.128;4.476;2022-10-22T00:16:57;5.23;;;2.90;;
16393;SDS011;8306;51.128;4.476;2022-10-22T00:19:23;5.93;;;2.30;;
16393;SDS011;8306;51.128;4.476;2022-10-22T00:21:50;7.93;;;3.27;;
16393;SDS011;8306;51.128;4.476;2022-10-22T00:24:16;4.70;;;2.70;;
16393;SDS011;8306;51.128;4.476;2022-10-22T00:26:43;4.47;;;2.77;;
16393;SDS011;8306;51.128;4.476;2022-10-22T00:29:09;4.43;;;2.73;;
16393;SDS011;8306;51.128;4.476;2022-10-22T00:31:36;5.47;;;2.80;;
16393;SDS011;8306;51.128;4.476;2022-10-22T00:34:02;9.73;;;3.37;;
16393;SDS011;8306;51.128;4.476;2022-10-22T00:36:29;3.93;;;2.80;;
16393;SDS011;8306;51.128;4.476;2022-10-22T00:38:55;5.90;;;3.37;;
16393;SDS011;8306;51.128;4.476;2022-10-22T00:41:22;9.27;;;3.03;;
16393;SDS011;8306;51.128;4.476;2022-10-22T00:43:52;13.17;;;3.90;;
16393;SDS011;8306;51.128;4.476;2022-10-22T00:46:18;6.30;;;3.50;;
16393;SDS011;8306;51.128;4.476;2022-10-22T00:48:44;5.33;;;3.53;;
16393;SDS011;8306;51.128;4.476;2022-10-22T00:51:11;5.77;;;3.47;;
16393;SDS011;8306;51.128;4.476;2022-10-22T00:53:38;5.90;;;3.10;;
16393;SDS011;8306;51.128;4.476;2022-10-22T00:56:04;5.57;;;2.70;;
16393;SDS011;8306;51.128;4.476;2022-10-22T00:58:32;7.10;;;2.97;;
16393;SDS011;8306;51.128;4.476;2022-10-22T01:00:57;7.67;;;3.03;;
16393;SDS011;8306;51.128;4.476;2022-10-22T01:03:23;6.13;;;2.47;;
16393;SDS011;8306;51.128;4.476;2022-10-22T01:05:53;8.50;;;2.80;;
16393;SDS011;8306;51.128;4.476;2022-10-22T01:08:23;3.70;;;2.20;;
16393;SDS011;8306;51.128;4.476;2022-10-22T01:14:09;5.90;;;2.47;;
16393;SDS011;8306;51.128;4.476;2022-10-22T01:16:29;6.13;;;2.40;;
16393;SDS011;8306;51.128;4.476;2022-10-22T01:21:43;6.43;;;2.43;;
16393;SDS011;8306;51.128;4.476;2022-10-22T01:27:14;6.93;;;2.20;;
16393;SDS011;8306;51.128;4.476;2022-10-22T01:29:42;4.70;;;2.43;;
16393;SDS011;8306;51.128;4.476;2022-10-22T01:32:12;5.70;;;2.07;;
16393;SDS011;8306;51.128;4.476;2022-10-22T01:34:40;7.87;;;2.80;;
16393;SDS011;8306;51.128;4.476;2022-10-22T01:37:06;4.47;;;2.37;;
16393;SDS011;8306;51.128;4.476;2022-10-22T01:39:33;4.50;;;2.37;;
16393;SDS011;8306;51.128;4.476;2022-10-22T01:41:59;5.30;;;2.80;;
16393;SDS011;8306;51.128;4.476;2022-10-22T01:44:29;4.87;;;2.40;;
16393;SDS011;8306;51.128;4.476;2022-10-22T01:47:14;5.50;;;2.30;;
16393;SDS011;8306;51.128;4.476;2022-10-22T01:52:41;5.63;;;2.47;;
16393;SDS011;8306;51.128;4.476;2022-10-22T01:55:06;4.73;;;2.33;;
16393;SDS011;8306;51.128;4.476;2022-10-22T01:57:33;4.87;;;2.10;;
16393;SDS011;8306;51.128;4.476;2022-10-22T02:05:35;3.53;;;2.30;;
16393;SDS011;8306;51.128;4.476;2022-10-22T02:08:05;5.13;;;2.50;;
16393;SDS011;8306;51.128;4.476;2022-10-22T02:10:28;6.80;;;2.07;;
16393;SDS011;8306;51.128;4.476;2022-10-22T02:12:55;5.67;;;2.50;;
16393;SDS011;8306;51.128;4.476;2022-10-22T02:15:22;7.93;;;2.53;;
16393;SDS011;8306;51.128;4.476;2022-10-22T02:17:48;5.57;;;2.83;;
16393;SDS011;8306;51.128;4.476;2022-10-22T02:20:18;3.93;;;2.10;;
16393;SDS011;8306;51.128;4.476;2022-10-22T02:22:43;4.70;;;2.50;;
16393;SDS011;8306;51.128;4.476;2022-10-22T02:25:10;4.13;;;2.30;;
16393;SDS011;8306;51.128;4.476;2022-10-22T02:27:46;4.73;;;2.00;;
16393;SDS011;8306;51.128;4.476;2022-10-22T02:30:16;4.73;;;2.10;;
16393;SDS011;8306;51.128;4.476;2022-10-22T02:32:43;4.50;;;2.40;;
16393;SDS011;8306;51.128;4.476;2022-10-22T02:35:14;4.63;;;2.37;;
16393;SDS011;8306;51.128;4.476;2022-10-22T02:37:39;3.37;;;2.23;;
16393;SDS011;8306;51.128;4.476;2022-10-22T02:40:06;2.77;;;1.97;;
16393;SDS011;8306;51.128;4.476;2022-10-22T02:42:33;6.27;;;1.83;;
16393;SDS011;8306;51.128;4.476;2022-10-22T02:44:59;3.43;;;2.10;;
16393;SDS011;8306;51.128;4.476;2022-10-22T02:47:26;4.40;;;2.17;;
16393;SDS011;8306;51.128;4.476;2022-10-22T02:49:52;4.70;;;2.20;;
16393;SDS011;8306;51.128;4.476;2022-10-22T02:52:19;2.73;;;2.00;;
16393;SDS011;8306;51.128;4.476;2022-10-22T02:54:45;5.53;;;2.60;;
16393;SDS011;8306;51.128;4.476;2022-10-22T02:57:12;7.80;;;2.73;;
16393;SDS011;8306;51.128;4.476;2022-10-22T02:59:38;4.43;;;2.30;;
16393;SDS011;8306;51.128;4.476;2022-10-22T03:02:04;4.87;;;2.23;;
16393;SDS011;8306;51.128;4.476;2022-10-22T03:04:31;5.63;;;2.63;;
16393;SDS011;8306;51.128;4.476;2022-10-22T03:06:57;5.40;;;2.30;;
16393;SDS011;8306;51.128;4.476;2022-10-22T03:09:24;4.77;;;2.30;;
16393;SDS011;8306;51.128;4.476;2022-10-22T03:11:50;5.53;;;2.03;;
16393;SDS011;8306;51.128;4.476;2022-10-22T03:14:17;5.47;;;1.90;;
16393;SDS011;8306;51.128;4.476;2022-10-22T03:16:43;6.20;;;2.10;;
16393;SDS011;8306;51.128;4.476;2022-10-22T03:19:10;5.10;;;2.40;;
16393;SDS011;8306;51.128;4.476;2022-10-22T03:21:38;4.20;;;1.90;;
16393;SDS011;8306;51.128;4.476;2022-10-22T03:24:04;6.83;;;2.37;;
16393;SDS011;8306;51.128;4.476;2022-10-22T03:26:38;3.83;;;1.77;;
16393;SDS011;8306;51.128;4.476;2022-10-22T03:29:04;5.67;;;1.70;;
16393;SDS011;8306;51.128;4.476;2022-10-22T03:31:31;4.30;;;1.70;;
16393;SDS011;8306;51.128;4.476;2022-10-22T03:33:57;5.13;;;2.00;;
16393;SDS011;8306;51.128;4.476;2022-10-22T03:36:24;4.77;;;2.00;;
16393;SDS011;8306;51.128;4.476;2022-10-22T03:38:50;5.10;;;2.20;;
16393;SDS011;8306;51.128;4.476;2022-10-22T03:41:17;3.23;;;2.00;;
16393;SDS011;8306;51.128;4.476;2022-10-22T03:43:43;7.07;;;1.80;;
16393;SDS011;8306;51.128;4.476;2022-10-22T03:46:10;5.23;;;2.37;;
16393;SDS011;8306;51.128;4.476;2022-10-22T03:48:36;3.73;;;1.40;;
16393;SDS011;8306;51.128;4.476;2022-10-22T03:51:03;5.00;;;1.80;;
16393;SDS011;8306;51.128;4.476;2022-10-22T03:53:29;6.10;;;1.80;;
16393;SDS011;8306;51.128;4.476;2022-10-22T03:55:56;5.23;;;1.63;;
16393;SDS011;8306;51.128;4.476;2022-10-22T03:58:22;5.20;;;2.23;;
16393;SDS011;8306;51.128;4.476;2022-10-22T04:00:49;4.57;;;1.73;;
16393;SDS011;8306;51.128;4.476;2022-10-22T04:03:15;5.80;;;1.97;;
16393;SDS011;8306;51.128;4.476;2022-10-22T04:05:42;4.03;;;2.00;;
16393;SDS011;8306;51.128;4.476;2022-10-22T04:08:08;8.00;;;1.80;;
16393;SDS011;8306;51.128;4.476;2022-10-22T04:10:35;5.60;;;1.73;;
16393;SDS011;8306;51.128;4.476;2022-10-22T04:13:01;3.33;;;1.67;;
16393;SDS011;8306;51.128;4.476;2022-10-22T04:15:28;4.40;;;1.60;;
16393;SDS011;8306;51.128;4.476;2022-10-22T04:17:54;4.57;;;1.83;;
16393;SDS011;8306;51.128;4.476;2022-10-22T04:20:21;4.40;;;2.23;;
16393;SDS011;8306;51.128;4.476;2022-10-22T04:22:47;4.20;;;1.63;;
16393;SDS011;8306;51.128;4.476;2022-10-22T04:25:13;7.00;;;2.00;;
16393;SDS011;8306;51.128;4.476;2022-10-22T04:27:40;3.23;;;1.40;;
16393;SDS011;8306;51.128;4.476;2022-10-22T04:30:07;4.90;;;1.90;;
16393;SDS011;8306;51.128;4.476;2022-10-22T04:32:33;3.90;;;1.73;;
16393;SDS011;8306;51.128;4.476;2022-10-22T04:35:00;4.30;;;1.70;;
16393;SDS011;8306;51.128;4.476;2022-10-22T04:37:26;4.57;;;1.70;;
16393;SDS011;8306;51.128;4.476;2022-10-22T04:39:53;3.00;;;1.60;;
16393;SDS011;8306;51.128;4.476;2022-10-22T04:42:19;6.17;;;1.93;;
16393;SDS011;8306;51.128;4.476;2022-10-22T04:44:45;3.80;;;1.50;;
16393;SDS011;8306;51.128;4.476;2022-10-22T04:47:12;3.00;;;1.40;;
16393;SDS011;8306;51.128;4.476;2022-10-22T04:49:39;3.33;;;1.40;;
16393;SDS011;8306;51.128;4.476;2022-10-22T04:52:05;3.07;;;1.27;;
16393;SDS011;8306;51.128;4.476;2022-10-22T04:54:31;2.67;;;1.47;;
16393;SDS011;8306;51.128;4.476;2022-10-22T04:56:58;2.67;;;1.37;;
16393;SDS011;8306;51.128;4.476;2022-10-22T04:59:24;7.03;;;1.90;;
16393;SDS011;8306;51.128;4.476;2022-10-22T05:01:51;5.10;;;1.37;;
16393;SDS011;8306;51.128;4.476;2022-10-22T05:04:17;3.63;;;1.23;;
16393;SDS011;8306;51.128;4.476;2022-10-22T05:06:44;4.30;;;1.37;;
16393;SDS011;8306;51.128;4.476;2022-10-22T05:09:12;3.57;;;1.40;;
16393;SDS011;8306;51.128;4.476;2022-10-22T05:11:37;4.67;;;1.57;;
16393;SDS011;8306;51.128;4.476;2022-10-22T05:14:04;5.13;;;1.73;;
16393;SDS011;8306;51.128;4.476;2022-10-22T05:16:30;4.50;;;1.40;;
16393;SDS011;8306;51.128;4.476;2022-10-22T05:18:56;4.43;;;1.70;;
16393;SDS011;8306;51.128;4.476;2022-10-22T05:21:23;4.83;;;1.73;;
16393;SDS011;8306;51.128;4.476;2022-10-22T05:23:49;4.03;;;1.43;;
16393;SDS011;8306;51.128;4.476;2022-10-22T05:26:19;6.90;;;1.80;;
16393;SDS011;8306;51.128;4.476;2022-10-22T05:28:42;4.77;;;1.83;;
16393;SDS011;8306;51.128;4.476;2022-10-22T05:31:09;4.17;;;1.73;;
16393;SDS011;8306;51.128;4.476;2022-10-22T05:33:35;5.37;;;1.93;;
16393;SDS011;8306;51.128;4.476;2022-10-22T05:36:02;5.73;;;1.73;;
16393;SDS011;8306;51.128;4.476;2022-10-22T05:38:28;6.10;;;1.57;;
16393;SDS011;8306;51.128;4.476;2022-10-22T05:41:01;4.10;;;1.73;;
16393;SDS011;8306;51.128;4.476;2022-10-22T05:43:27;5.47;;;1.90;;
16393;SDS011;8306;51.128;4.476;2022-10-22T05:45:53;3.67;;;1.30;;
16393;SDS011;8306;51.128;4.476;2022-10-22T05:48:20;3.77;;;1.37;;
16393;SDS011;8306;51.128;4.476;2022-10-22T05:50:46;5.03;;;1.47;;
16393;SDS011;8306;51.128;4.476;2022-10-22T05:53:13;4.67;;;1.90;;
16393;SDS011;8306;51.128;4.476;2022-10-22T05:55:39;4.70;;;1.40;;
16393;SDS011;8306;51.128;4.476;2022-10-22T05:58:06;4.30;;;1.40;;
16393;SDS011;8306;51.128;4.476;2022-10-22T06:00:32;6.43;;;1.80;;
16393;SDS011;8306;51.128;4.476;2022-10-22T06:02:59;5.03;;;1.83;;
16393;SDS011;8306;51.128;4.476;2022-10-22T06:05:25;4.07;;;1.43;;
16393;SDS011;8306;51.128;4.476;2022-10-22T06:07:52;4.73;;;1.40;;
16393;SDS011;8306;51.128;4.476;2022-10-22T06:10:19;6.00;;;1.47;;
16393;SDS011;8306;51.128;4.476;2022-10-22T06:12:45;3.90;;;1.67;;
16393;SDS011;8306;51.128;4.476;2022-10-22T06:15:12;8.20;;;1.90;;
16393;SDS011;8306;51.128;4.476;2022-10-22T06:17:38;4.93;;;1.80;;
16393;SDS011;8306;51.128;4.476;2022-10-22T06:20:04;2.97;;;1.20;;
16393;SDS011;8306;51.128;4.476;2022-10-22T06:22:31;7.17;;;1.37;;
16393;SDS011;8306;51.128;4.476;2022-10-22T06:24:57;6.47;;;1.90;;
16393;SDS011;8306;51.128;4.476;2022-10-22T06:27:24;5.63;;;1.70;;
16393;SDS011;8306;51.128;4.476;2022-10-22T06:29:50;6.60;;;1.73;;
16393;SDS011;8306;51.128;4.476;2022-10-22T06:32:17;4.70;;;1.70;;
16393;SDS011;8306;51.128;4.476;2022-10-22T06:34:43;4.37;;;1.90;;
16393;SDS011;8306;51.128;4.476;2022-10-22T06:37:10;3.73;;;1.43;;
16393;SDS011;8306;51.128;4.476;2022-10-22T06:39:36;5.93;;;1.60;;
16393;SDS011;8306;51.128;4.476;2022-10-22T06:42:03;3.10;;;1.40;;
16393;SDS011;8306;51.128;4.476;2022-10-22T06:44:29;3.93;;;1.40;;
16393;SDS011;8306;51.128;4.476;2022-10-22T06:46:55;3.40;;;1.13;;
16393;SDS011;8306;51.128;4.476;2022-10-22T06:49:22;4.30;;;1.30;;
16393;SDS011;8306;51.128;4.476;2022-10-22T06:51:49;3.57;;;1.40;;
16393;SDS011;8306;51.128;4.476;2022-10-22T06:54:15;4.50;;;1.57;;
16393;SDS011;8306;51.128;4.476;2022-10-22T06:56:41;5.20;;;1.37;;
16393;SDS011;8306;51.128;4.476;2022-10-22T06:59:08;9.00;;;1.77;;
16393;SDS011;8306;51.128;4.476;2022-10-22T07:01:35;8.33;;;2.87;;
16393;SDS011;8306;51.128;4.476;2022-10-22T07:04:01;5.70;;;1.50;;
16393;SDS011;8306;51.128;4.476;2022-10-22T07:06:27;3.97;;;1.40;;
16393;SDS011;8306;51.128;4.476;2022-10-22T07:08:54;4.40;;;1.60;;
16393;SDS011;8306;51.128;4.476;2022-10-22T07:11:24;4.43;;;1.50;;
16393;SDS011;8306;51.128;4.476;2022-10-22T07:13:47;5.33;;;1.43;;
16393;SDS011;8306;51.128;4.476;2022-10-22T07:16:13;5.43;;;1.47;;
16393;SDS011;8306;51.128;4.476;2022-10-22T07:18:40;5.43;;;1.30;;
16393;SDS011;8306;51.128;4.476;2022-10-22T07:21:06;4.20;;;1.40;;
16393;SDS011;8306;51.128;4.476;2022-10-22T07:23:33;4.23;;;1.40;;
16393;SDS011;8306;51.128;4.476;2022-10-22T07:25:59;5.53;;;1.27;;
16393;SDS011;8306;51.128;4.476;2022-10-22T07:28:26;4.07;;;1.60;;
16393;SDS011;8306;51.128;4.476;2022-10-22T07:30:52;5.03;;;1.70;;
16393;SDS011;8306;51.128;4.476;2022-10-22T07:33:19;3.23;;;1.27;;
16393;SDS011;8306;51.128;4.476;2022-10-22T07:35:45;3.37;;;1.67;;
16393;SDS011;8306;51.128;4.476;2022-10-22T07:38:12;2.20;;;1.30;;
16393;SDS011;8306;51.128;4.476;2022-10-22T07:40:38;6.03;;;1.57;;
16393;SDS011;8306;51.128;4.476;2022-10-22T07:43:04;3.30;;;1.57;;
16393;SDS011;8306;51.128;4.476;2022-10-22T07:45:31;3.53;;;1.37;;
16393;SDS011;8306;51.128;4.476;2022-10-22T07:47:58;4.40;;;1.60;;
16393;SDS011;8306;51.128;4.476;2022-10-22T07:50:24;3.60;;;1.20;;
16393;SDS011;8306;51.128;4.476;2022-10-22T07:52:50;3.00;;;1.33;;
16393;SDS011;8306;51.128;4.476;2022-10-22T07:55:17;3.17;;;1.50;;
16393;SDS011;8306;51.128;4.476;2022-10-22T07:57:43;2.47;;;1.33;;
16393;SDS011;8306;51.128;4.476;2022-10-22T08:00:10;4.27;;;1.30;;
16393;SDS011;8306;51.128;4.476;2022-10-22T08:02:36;4.17;;;1.40;;
16393;SDS011;8306;51.128;4.476;2022-10-22T08:05:03;5.10;;;1.67;;
16393;SDS011;8306;51.128;4.476;2022-10-22T08:07:29;4.67;;;1.77;;
16393;SDS011;8306;51.128;4.476;2022-10-22T08:09:56;5.33;;;1.50;;
16393;SDS011;8306;51.128;4.476;2022-10-22T08:12:22;5.23;;;1.50;;
16393;SDS011;8306;51.128;4.476;2022-10-22T08:14:49;3.73;;;1.70;;
16393;SDS011;8306;51.128;4.476;2022-10-22T08:17:15;4.23;;;1.70;;
16393;SDS011;8306;51.128;4.476;2022-10-22T08:19:42;3.63;;;1.60;;
16393;SDS011;8306;51.128;4.476;2022-10-22T08:22:08;5.27;;;1.37;;
16393;SDS011;8306;51.128;4.476;2022-10-22T08:24:35;4.40;;;1.57;;
16393;SDS011;8306;51.128;4.476;2022-10-22T08:27:01;5.20;;;1.60;;
16393;SDS011;8306;51.128;4.476;2022-10-22T08:29:28;4.10;;;1.57;;
16393;SDS011;8306;51.128;4.476;2022-10-22T08:31:54;4.87;;;2.13;;
16393;SDS011;8306;51.128;4.476;2022-10-22T08:34:21;2.97;;;1.53;;
16393;SDS011;8306;51.128;4.476;2022-10-22T08:36:47;4.23;;;1.40;;
16393;SDS011;8306;51.128;4.476;2022-10-22T08:39:14;4.47;;;1.60;;
16393;SDS011;8306;51.128;4.476;2022-10-22T08:42:31;4.70;;;1.57;;
16393;SDS011;8306;51.128;4.476;2022-10-22T08:49:15;3.43;;;1.57;;
16393;SDS011;8306;51.128;4.476;2022-10-22T08:51:38;4.33;;;1.50;;
16393;SDS011;8306;51.128;4.476;2022-10-22T08:56:56;4.27;;;2.13;;
16393;SDS011;8306;51.128;4.476;2022-10-22T08:59:33;3.10;;;1.40;;
16393;SDS011;8306;51.128;4.476;2022-10-22T09:02:17;3.17;;;1.60;;
16393;SDS011;8306;51.128;4.476;2022-10-22T09:04:35;4.77;;;1.57;;
16393;SDS011;8306;51.128;4.476;2022-10-22T09:06:59;3.67;;;1.70;;
16393;SDS011;8306;51.128;4.476;2022-10-22T09:09:28;4.57;;;1.93;;
16393;SDS011;8306;51.128;4.476;2022-10-22T09:11:51;3.37;;;1.77;;
16393;SDS011;8306;51.128;4.476;2022-10-22T09:14:19;3.47;;;1.80;;
16393;SDS011;8306;51.128;4.476;2022-10-22T09:19:47;3.67;;;1.57;;
16393;SDS011;8306;51.128;4.476;2022-10-22T09:24:51;3.83;;;1.60;;
16393;SDS011;8306;51.128;4.476;2022-10-22T09:27:16;4.20;;;1.60;;
16393;SDS011;8306;51.128;4.476;2022-10-22T09:29:41;3.97;;;1.30;;
16393;SDS011;8306;51.128;4.476;2022-10-22T09:32:07;4.00;;;1.50;;
16393;SDS011;8306;51.128;4.476;2022-10-22T09:34:34;3.93;;;1.73;;
16393;SDS011;8306;51.128;4.476;2022-10-22T09:37:01;6.27;;;1.83;;
16393;SDS011;8306;51.128;4.476;2022-10-22T09:39:34;3.23;;;1.40;;
16393;SDS011;8306;51.128;4.476;2022-10-22T09:42:02;4.97;;;1.77;;
16393;SDS011;8306;51.128;4.476;2022-10-22T09:44:28;6.57;;;1.30;;
16393;SDS011;8306;51.128;4.476;2022-10-22T09:46:55;3.37;;;1.50;;
16393;SDS011;8306;51.128;4.476;2022-10-22T09:49:21;4.13;;;1.70;;
16393;SDS011;8306;51.128;4.476;2022-10-22T09:51:52;4.17;;;1.60;;
16393;SDS011;8306;51.128;4.476;2022-10-22T09:54:36;3.67;;;1.40;;
16393;SDS011;8306;51.128;4.476;2022-10-22T09:56:56;3.57;;;1.73;;
16393;SDS011;8306;51.128;4.476;2022-10-22T09:59:28;3.77;;;1.40;;
16393;SDS011;8306;51.128;4.476;2022-10-22T10:02:00;3.00;;;1.57;;
16393;SDS011;8306;51.128;4.476;2022-10-22T10:04:23;3.77;;;1.77;;
16393;SDS011;8306;51.128;4.476;2022-10-22T10:06:52;3.70;;;1.67;;
16393;SDS011;8306;51.128;4.476;2022-10-22T10:09:17;2.67;;;1.50;;
16393;SDS011;8306;51.128;4.476;2022-10-22T10:11:47;4.47;;;1.50;;
16393;SDS011;8306;51.128;4.476;2022-10-22T10:16:47;4.77;;;1.83;;
16393;SDS011;8306;51.128;4.476;2022-10-22T10:21:51;3.90;;;1.50;;
16393;SDS011;8306;51.128;4.476;2022-10-22T10:27:33;4.27;;;1.93;;
16393;SDS011;8306;51.128;4.476;2022-10-22T10:30:14;3.87;;;1.13;;
16393;SDS011;8306;51.128;4.476;2022-10-22T10:32:47;3.47;;;1.50;;
16393;SDS011;8306;51.128;4.476;2022-10-22T10:35:15;3.23;;;1.60;;
16393;SDS011;8306;51.128;4.476;2022-10-22T10:37:42;3.97;;;1.77;;
16393;SDS011;8306;51.128;4.476;2022-10-22T10:40:26;2.87;;;1.30;;
16393;SDS011;8306;51.128;4.476;2022-10-22T10:43:14;3.63;;;1.73;;
16393;SDS011;8306;51.128;4.476;2022-10-22T10:56:32;5.23;;;1.60;;
16393;SDS011;8306;51.128;4.476;2022-10-22T11:07:04;3.27;;;1.30;;
16393;SDS011;8306;51.128;4.476;2022-10-22T11:09:33;4.90;;;2.00;;
16393;SDS011;8306;51.128;4.476;2022-10-22T11:12:00;6.10;;;1.80;;
16393;SDS011;8306;51.128;4.476;2022-10-22T11:14:40;3.93;;;1.50;;
16393;SDS011;8306;51.128;4.476;2022-10-22T11:17:15;3.33;;;1.20;;
16393;SDS011;8306;51.128;4.476;2022-10-22T11:19:38;3.63;;;1.70;;
16393;SDS011;8306;51.128;4.476;2022-10-22T11:25:13;4.33;;;1.60;;
16393;SDS011;8306;51.128;4.476;2022-10-22T11:27:53;2.70;;;1.47;;
16393;SDS011;8306;51.128;4.476;2022-10-22T11:30:23;4.27;;;1.80;;
16393;SDS011;8306;51.128;4.476;2022-10-22T11:32:46;4.40;;;1.70;;
16393;SDS011;8306;51.128;4.476;2022-10-22T11:35:13;5.13;;;1.73;;
16393;SDS011;8306;51.128;4.476;2022-10-22T11:37:38;4.63;;;1.77;;
16393;SDS011;8306;51.128;4.476;2022-10-22T11:40:15;4.07;;;1.40;;
16393;SDS011;8306;51.128;4.476;2022-10-22T11:42:53;3.40;;;1.63;;
16393;SDS011;8306;51.128;4.476;2022-10-22T11:47:51;4.23;;;1.97;;
16393;SDS011;8306;51.128;4.476;2022-10-22T11:52:53;3.70;;;1.60;;
16393;SDS011;8306;51.128;4.476;2022-10-22T11:55:41;3.60;;;1.70;;
16393;SDS011;8306;51.128;4.476;2022-10-22T11:57:58;4.67;;;1.77;;
16393;SDS011;8306;51.128;4.476;2022-10-22T12:00:47;3.73;;;1.53;;
16393;SDS011;8306;51.128;4.476;2022-10-22T12:03:04;2.97;;;1.53;;
16393;SDS011;8306;51.128;4.476;2022-10-22T12:05:34;4.17;;;1.60;;
16393;SDS011;8306;51.128;4.476;2022-10-22T12:08:13;3.73;;;1.60;;
16393;SDS011;8306;51.128;4.476;2022-10-22T12:10:47;4.30;;;1.50;;
16393;SDS011;8306;51.128;4.476;2022-10-22T12:13:21;6.40;;;2.27;;
16393;SDS011;8306;51.128;4.476;2022-10-22T12:15:47;5.40;;;1.30;;
16393;SDS011;8306;51.128;4.476;2022-10-22T12:18:13;3.50;;;1.53;;
16393;SDS011;8306;51.128;4.476;2022-10-22T12:20:39;2.87;;;1.30;;
16393;SDS011;8306;51.128;4.476;2022-10-22T12:23:08;2.27;;;1.13;;
16393;SDS011;8306;51.128;4.476;2022-10-22T12:25:32;4.33;;;1.70;;
16393;SDS011;8306;51.128;4.476;2022-10-22T12:27:59;2.30;;;1.40;;
16393;SDS011;8306;51.128;4.476;2022-10-22T12:30:26;4.10;;;1.80;;
16393;SDS011;8306;51.128;4.476;2022-10-22T12:32:53;5.07;;;1.57;;
16393;SDS011;8306;51.128;4.476;2022-10-22T12:35:23;4.40;;;1.70;;
16393;SDS011;8306;51.128;4.476;2022-10-22T12:37:48;5.90;;;2.10;;
16393;SDS011;8306;51.128;4.476;2022-10-22T12:42:50;3.47;;;1.50;;
16393;SDS011;8306;51.128;4.476;2022-10-22T12:45:13;3.80;;;1.60;;
16393;SDS011;8306;51.128;4.476;2022-10-22T12:47:39;4.73;;;2.07;;
16393;SDS011;8306;51.128;4.476;2022-10-22T12:50:06;3.73;;;1.30;;
16393;SDS011;8306;51.128;4.476;2022-10-22T12:52:32;4.60;;;1.63;;
16393;SDS011;8306;51.128;4.476;2022-10-22T12:54:59;2.33;;;1.20;;
16393;SDS011;8306;51.128;4.476;2022-10-22T12:57:25;2.17;;;1.23;;
16393;SDS011;8306;51.128;4.476;2022-10-22T12:59:51;8.87;;;2.40;;
16393;SDS011;8306;51.128;4.476;2022-10-22T13:02:19;2.87;;;1.50;;
16393;SDS011;8306;51.128;4.476;2022-10-22T13:05:12;3.07;;;1.50;;
16393;SDS011;8306;51.128;4.476;2022-10-22T13:07:42;3.90;;;1.30;;
16393;SDS011;8306;51.128;4.476;2022-10-22T13:09:58;2.80;;;1.07;;
16393;SDS011;8306;51.128;4.476;2022-10-22T13:12:33;3.53;;;1.13;;
16393;SDS011;8306;51.128;4.476;2022-10-22T13:14:54;3.50;;;1.40;;
16393;SDS011;8306;51.128;4.476;2022-10-22T13:17:42;3.50;;;1.23;;
16393;SDS011;8306;51.128;4.476;2022-10-22T13:20:12;2.80;;;1.30;;
16393;SDS011;8306;51.128;4.476;2022-10-22T13:22:35;3.83;;;1.50;;
16393;SDS011;8306;51.128;4.476;2022-10-22T13:27:42;2.90;;;1.30;;
16393;SDS011;8306;51.128;4.476;2022-10-22T13:30:13;3.47;;;1.47;;
16393;SDS011;8306;51.128;4.476;2022-10-22T13:32:35;4.50;;;1.40;;
16393;SDS011;8306;51.128;4.476;2022-10-22T13:35:01;3.80;;;1.30;;
16393;SDS011;8306;51.128;4.476;2022-10-22T13:37:29;3.43;;;1.20;;
16393;SDS011;8306;51.128;4.476;2022-10-22T13:39:54;2.70;;;1.20;;
16393;SDS011;8306;51.128;4.476;2022-10-22T13:42:21;3.57;;;1.20;;
16393;SDS011;8306;51.128;4.476;2022-10-22T13:44:47;2.23;;;0.97;;
16393;SDS011;8306;51.128;4.476;2022-10-22T13:47:21;2.97;;;1.10;;
16393;SDS011;8306;51.128;4.476;2022-10-22T13:49:46;2.97;;;1.00;;
16393;SDS011;8306;51.128;4.476;2022-10-22T13:52:13;2.40;;;1.00;;
16393;SDS011;8306;51.128;4.476;2022-10-22T13:54:38;4.10;;;1.23;;
16393;SDS011;8306;51.128;4.476;2022-10-22T13:57:07;3.43;;;1.20;;
16393;SDS011;8306;51.128;4.476;2022-10-22T13:59:31;3.30;;;1.10;;
16393;SDS011;8306;51.128;4.476;2022-10-22T14:01:58;3.13;;;1.30;;
16393;SDS011;8306;51.128;4.476;2022-10-22T14:04:24;2.13;;;1.00;;
16393;SDS011;8306;51.128;4.476;2022-10-22T14:06:51;2.47;;;1.20;;
16393;SDS011;8306;51.128;4.476;2022-10-22T14:09:17;2.83;;;1.30;;
16393;SDS011;8306;51.128;4.476;2022-10-22T14:11:44;3.30;;;1.47;;
16393;SDS011;8306;51.128;4.476;2022-10-22T14:14:10;2.87;;;1.50;;
16393;SDS011;8306;51.128;4.476;2022-10-22T14:16:37;4.30;;;1.70;;
16393;SDS011;8306;51.128;4.476;2022-10-22T14:19:03;3.57;;;1.10;;
16393;SDS011;8306;51.128;4.476;2022-10-22T14:21:32;2.17;;;0.90;;
16393;SDS011;8306;51.128;4.476;2022-10-22T14:23:56;2.20;;;0.90;;
16393;SDS011;8306;51.128;4.476;2022-10-22T14:26:24;3.30;;;1.30;;
16393;SDS011;8306;51.128;4.476;2022-10-22T14:28:54;3.63;;;0.90;;
16393;SDS011;8306;51.128;4.476;2022-10-22T14:31:21;2.80;;;1.10;;
16393;SDS011;8306;51.128;4.476;2022-10-22T14:33:47;3.10;;;1.07;;
16393;SDS011;8306;51.128;4.476;2022-10-22T14:36:14;2.63;;;1.00;;
16393;SDS011;8306;51.128;4.476;2022-10-22T14:38:41;3.63;;;1.17;;
16393;SDS011;8306;51.128;4.476;2022-10-22T14:41:12;2.33;;;1.30;;
16393;SDS011;8306;51.128;4.476;2022-10-22T14:43:45;1.93;;;0.87;;
16393;SDS011;8306;51.128;4.476;2022-10-22T14:46:12;2.63;;;1.23;;
16393;SDS011;8306;51.128;4.476;2022-10-22T14:48:38;3.57;;;1.13;;
16393;SDS011;8306;51.128;4.476;2022-10-22T14:51:04;2.50;;;1.00;;
16393;SDS011;8306;51.128;4.476;2022-10-22T14:53:31;19.23;;;4.07;;
16393;SDS011;8306;51.128;4.476;2022-10-22T14:55:57;6.27;;;2.73;;
16393;SDS011;8306;51.128;4.476;2022-10-22T14:58:24;4.63;;;1.40;;
16393;SDS011;8306;51.128;4.476;2022-10-22T15:00:50;3.87;;;1.20;;
16393;SDS011;8306;51.128;4.476;2022-10-22T15:03:17;2.00;;;1.10;;
16393;SDS011;8306;51.128;4.476;2022-10-22T15:05:43;2.53;;;1.30;;
16393;SDS011;8306;51.128;4.476;2022-10-22T15:08:10;3.47;;;1.10;;
16393;SDS011;8306;51.128;4.476;2022-10-22T15:10:36;2.47;;;0.90;;
16393;SDS011;8306;51.128;4.476;2022-10-22T15:13:03;2.70;;;1.33;;
16393;SDS011;8306;51.128;4.476;2022-10-22T15:15:29;3.97;;;1.20;;
16393;SDS011;8306;51.128;4.476;2022-10-22T15:17:56;2.60;;;1.20;;
16393;SDS011;8306;51.128;4.476;2022-10-22T15:20:22;2.63;;;1.00;;
16393;SDS011;8306;51.128;4.476;2022-10-22T15:22:49;3.13;;;1.13;;
16393;SDS011;8306;51.128;4.476;2022-10-22T15:25:15;2.57;;;1.10;;
16393;SDS011;8306;51.128;4.476;2022-10-22T15:27:41;2.23;;;1.20;;
16393;SDS011;8306;51.128;4.476;2022-10-22T15:30:08;5.53;;;1.70;;
16393;SDS011;8306;51.128;4.476;2022-10-22T15:32:34;3.23;;;1.20;;
16393;SDS011;8306;51.128;4.476;2022-10-22T15:35:01;3.77;;;1.40;;
16393;SDS011;8306;51.128;4.476;2022-10-22T15:37:27;2.87;;;1.10;;
16393;SDS011;8306;51.128;4.476;2022-10-22T15:39:54;3.27;;;1.30;;
16393;SDS011;8306;51.128;4.476;2022-10-22T15:42:20;2.37;;;1.10;;
16393;SDS011;8306;51.128;4.476;2022-10-22T15:44:47;3.50;;;1.40;;
16393;SDS011;8306;51.128;4.476;2022-10-22T15:47:13;3.93;;;1.40;;
16393;SDS011;8306;51.128;4.476;2022-10-22T15:49:40;2.40;;;1.07;;
16393;SDS011;8306;51.128;4.476;2022-10-22T15:52:06;3.73;;;1.30;;
16393;SDS011;8306;51.128;4.476;2022-10-22T15:54:33;3.33;;;1.37;;
16393;SDS011;8306;51.128;4.476;2022-10-22T15:56:59;3.47;;;1.70;;
16393;SDS011;8306;51.128;4.476;2022-10-22T15:59:29;5.07;;;1.80;;
16393;SDS011;8306;51.128;4.476;2022-10-22T16:01:55;4.47;;;2.03;;
16393;SDS011;8306;51.128;4.476;2022-10-22T16:04:21;4.03;;;2.00;;
16393;SDS011;8306;51.128;4.476;2022-10-22T16:06:49;3.40;;;1.57;;
16393;SDS011;8306;51.128;4.476;2022-10-22T16:09:16;3.50;;;1.60;;
16393;SDS011;8306;51.128;4.476;2022-10-22T16:11:41;4.70;;;1.77;;
16393;SDS011;8306;51.128;4.476;2022-10-22T16:14:09;3.67;;;1.50;;